createdAt,value
2019-02-05T00:04:19.018Z,0.86
2019-02-05T00:06:49.285Z,0.80
2019-02-05T00:09:19.702Z,0.80
2019-02-05T00:11:50.078Z,0.76
2019-02-05T00:14:20.464Z,0.78
2019-02-05T00:16:50.842Z,0.88
2019-02-05T00:19:21.267Z,0.89
2019-02-05T00:21:51.639Z,0.83
2019-02-05T00:24:21.989Z,0.72
2019-02-05T00:26:52.480Z,0.75
2019-02-05T00:29:23.054Z,0.65
2019-02-05T00:31:53.703Z,0.61
2019-02-05T00:34:24.029Z,0.68
2019-02-05T00:36:54.474Z,0.62
2019-02-05T00:39:24.869Z,0.60
2019-02-05T00:42:57.725Z,0.63
2019-02-05T00:46:02.033Z,0.56
2019-02-05T00:51:28.669Z,0.39
2019-02-05T00:57:38.731Z,0.24
2019-02-05T01:05:04.529Z,0.16
2019-02-05T01:08:21.747Z,0.01
2019-02-05T01:30:11.546Z,0.11
2019-02-05T01:32:42.001Z,0.16
2019-02-05T01:35:12.574Z,0.18
2019-02-05T01:40:36.348Z,0.15
2019-02-05T01:43:06.687Z,0.09
2019-02-05T01:45:37.038Z,0.00
2019-02-05T01:49:03.293Z,0.00
2019-02-05T01:51:33.661Z,0.03
2019-02-05T02:10:25.924Z,0.19
2019-02-05T02:12:56.488Z,0.25
2019-02-05T02:15:27.050Z,0.32
2019-02-05T02:17:57.467Z,0.37
2019-02-05T02:20:27.993Z,0.39
2019-02-05T02:22:58.680Z,0.41
2019-02-05T02:25:29.091Z,0.31
2019-02-05T02:27:59.594Z,0.34
2019-02-05T02:31:50.353Z,0.19
2019-02-05T02:34:20.718Z,0.25
2019-02-05T02:36:51.074Z,0.21
2019-02-05T02:39:21.524Z,0.10
2019-02-05T02:41:51.872Z,0.22
2019-02-05T02:45:38.808Z,0.19
2019-02-05T02:49:05.193Z,0.20
2019-02-05T02:55:25.628Z,0.26
2019-02-05T02:57:55.994Z,0.22
2019-02-05T03:00:26.378Z,0.30
2019-02-05T03:02:56.740Z,0.33
2019-02-05T03:05:27.553Z,0.49
2019-02-05T03:07:58.148Z,0.60
2019-02-05T03:10:30.572Z,0.58
2019-02-05T03:13:00.990Z,0.74
2019-02-05T03:15:31.449Z,0.75
2019-02-05T03:18:01.925Z,0.77
2019-02-05T03:20:32.840Z,0.84
2019-02-05T03:23:03.201Z,0.82
2019-02-05T03:29:19.222Z,0.88
2019-02-05T03:31:37.571Z,0.97
2019-02-05T03:34:27.119Z,0.99
2019-02-05T03:36:57.695Z,1.01
2019-02-05T03:39:28.677Z,0.96
2019-02-05T03:41:59.214Z,0.93
2019-02-05T03:44:29.672Z,1.03
2019-02-05T03:47:00.150Z,0.96
2019-02-05T03:49:30.568Z,0.97
2019-02-05T04:01:21.120Z,0.83
2019-02-05T04:04:52.783Z,0.75
2019-02-05T04:12:05.596Z,0.67
2019-02-05T04:25:41.523Z,0.50
2019-02-05T04:29:23.389Z,0.53
2019-02-05T04:33:19.593Z,0.68
2019-02-05T04:36:47.059Z,0.76
2019-02-05T04:40:37.172Z,0.86
2019-02-05T04:48:25.548Z,1.05
2019-02-05T04:52:01.585Z,1.10
2019-02-05T04:59:16.416Z,1.21
2019-02-05T05:02:13.934Z,1.15
2019-02-05T05:06:15.510Z,1.16
2019-02-05T05:09:36.230Z,1.19
2019-02-05T05:12:28.073Z,1.14
2019-02-05T05:18:15.316Z,1.16
2019-02-05T05:31:00.029Z,1.12
2019-02-05T05:33:30.307Z,1.08
2019-02-05T05:36:01.489Z,1.15
2019-02-05T05:38:32.080Z,1.15
2019-02-05T05:41:02.343Z,1.28
2019-02-05T05:43:32.807Z,1.29
2019-02-05T05:46:03.128Z,1.24
2019-02-05T05:48:33.950Z,1.28
2019-02-05T05:54:47.276Z,1.27
2019-02-05T05:58:21.866Z,1.27
2019-02-05T06:00:38.553Z,1.39
2019-02-05T06:03:09.096Z,1.36
2019-02-05T06:05:39.965Z,1.42
2019-02-05T06:08:10.783Z,1.48
2019-02-05T06:10:41.793Z,1.51
2019-02-05T06:13:12.338Z,1.56
2019-02-05T06:15:42.745Z,1.52
2019-02-05T06:18:13.074Z,1.54
2019-02-05T06:20:43.765Z,1.50
2019-02-05T06:23:14.113Z,1.53
2019-02-05T06:25:44.617Z,1.52
2019-02-05T06:28:15.136Z,1.53
2019-02-05T06:30:45.682Z,1.65
2019-02-05T06:36:36.605Z,1.64
2019-02-05T06:39:09.991Z,1.57
2019-02-05T06:41:40.602Z,1.63
2019-02-05T06:44:12.240Z,1.67
2019-02-05T06:49:34.266Z,1.62
2019-02-05T06:52:04.802Z,1.63
2019-02-05T06:57:45.819Z,1.52
2019-02-05T07:00:20.470Z,1.69
2019-02-05T07:03:09.838Z,1.71
2019-02-05T07:05:40.339Z,1.70
2019-02-05T07:08:10.770Z,1.61
2019-02-05T07:10:41.117Z,1.85
2019-02-05T07:13:12.535Z,1.89
2019-02-05T07:15:42.860Z,1.88
2019-02-05T07:18:13.218Z,1.92
2019-02-05T07:20:43.605Z,2.10
2019-02-05T07:23:14.080Z,2.01
2019-02-05T07:28:35.572Z,2.10
2019-02-05T07:33:56.711Z,2.10
2019-02-05T07:36:26.912Z,2.16
2019-02-05T07:38:57.370Z,2.21
2019-02-05T07:41:27.922Z,2.35
2019-02-05T07:43:58.445Z,2.52
2019-02-05T07:46:29.743Z,2.51
2019-02-05T07:49:00.833Z,2.75
2019-02-05T07:51:35.339Z,2.90
2019-02-05T07:54:08.178Z,2.97
2019-02-05T08:00:45.923Z,3.33
2019-02-05T08:03:16.726Z,3.12
2019-02-05T08:09:39.894Z,3.23
2019-02-05T08:12:31.009Z,3.29
2019-02-05T08:15:09.974Z,3.40
2019-02-05T08:18:09.934Z,3.48
2019-02-05T08:23:09.173Z,3.67
2019-02-05T08:24:01.410Z,3.79
2019-02-05T08:26:32.612Z,4.25
2019-02-05T08:33:16.879Z,4.82
2019-02-05T08:42:17.815Z,5.16
2019-02-05T08:46:16.614Z,5.39
2019-02-05T08:52:44.055Z,5.24
2019-02-05T08:55:15.764Z,4.92
2019-02-05T08:57:46.643Z,4.97
2019-02-05T09:01:19.279Z,4.82
2019-02-05T09:04:51.447Z,4.72
2019-02-05T09:12:10.039Z,4.65
2019-02-05T09:15:39.858Z,4.49
2019-02-05T09:27:57.462Z,4.53
2019-02-05T09:35:08.315Z,5.07
2019-02-05T09:37:36.264Z,5.10
2019-02-05T09:40:54.577Z,5.10
2019-02-05T09:43:25.320Z,5.34
2019-02-05T09:46:22.006Z,4.96
2019-02-05T09:49:03.761Z,4.91
2019-02-05T09:52:48.772Z,4.74
2019-02-05T09:55:47.782Z,4.48
2019-02-05T09:58:53.784Z,4.59
2019-02-05T10:11:49.899Z,4.57
2019-02-05T10:14:23.181Z,4.65
2019-02-05T10:16:54.399Z,4.60
2019-02-05T10:26:01.932Z,4.71
2019-02-05T10:29:08.201Z,4.78
2019-02-05T10:31:38.566Z,5.00
2019-02-05T10:34:08.910Z,4.74
2019-02-05T10:36:39.749Z,4.75
2019-02-05T10:50:44.585Z,4.61
2019-02-05T10:53:14.881Z,4.47
2019-02-05T10:55:45.382Z,4.54
2019-02-05T10:58:16.441Z,4.87
2019-02-05T11:00:47.229Z,4.84
2019-02-05T11:03:17.695Z,5.12
2019-02-05T11:12:44.205Z,4.97
2019-02-05T11:15:17.071Z,4.83
2019-02-05T11:17:47.360Z,5.04
2019-02-05T11:20:19.828Z,4.73
2019-02-05T11:34:05.107Z,5.30
2019-02-05T11:37:32.479Z,5.26
2019-02-05T11:40:56.380Z,5.35
2019-02-05T11:42:55.571Z,5.65
2019-02-05T11:45:25.941Z,5.93
2019-02-05T11:47:56.530Z,5.91
2019-02-05T11:50:28.461Z,5.96
2019-02-05T11:57:05.247Z,5.76
2019-02-05T11:59:49.503Z,5.65
2019-02-05T12:02:27.802Z,6.06
2019-02-05T12:04:58.231Z,6.06
2019-02-05T12:07:28.657Z,6.05
2019-02-05T12:13:23.579Z,6.23
2019-02-05T12:15:53.872Z,5.90
2019-02-05T12:18:24.478Z,6.13
2019-02-05T12:20:54.808Z,6.19
2019-02-05T12:24:16.565Z,6.12
2019-02-05T12:27:28.659Z,6.28
2019-02-05T12:30:45.721Z,6.43
2019-02-05T12:33:59.883Z,7.00
2019-02-05T12:36:57.542Z,7.68
2019-02-05T12:39:28.202Z,7.80
2019-02-05T12:41:58.742Z,7.58
2019-02-05T12:44:29.566Z,7.57
2019-02-05T12:47:00.139Z,7.42
2019-02-05T13:06:37.427Z,6.78
2019-02-05T13:09:41.736Z,6.39
2019-02-05T13:16:02.417Z,6.44
2019-02-05T13:21:28.628Z,6.65
2019-02-05T13:23:59.040Z,6.50
2019-02-05T13:26:29.322Z,6.58
2019-02-05T13:28:59.641Z,6.39
2019-02-05T13:32:47.562Z,6.25
2019-02-05T13:35:47.401Z,6.43
2019-02-05T13:38:36.185Z,6.71
2019-02-05T13:41:41.311Z,6.91
2019-02-05T13:44:39.171Z,7.01
2019-02-05T13:47:43.886Z,6.93
2019-02-05T13:51:08.582Z,6.78
2019-02-05T13:54:00.233Z,6.98
2019-02-05T13:56:56.204Z,6.93
2019-02-05T13:59:23.782Z,6.77
2019-02-05T14:01:54.595Z,6.70
2019-02-05T14:04:24.877Z,6.43
2019-02-05T14:06:55.864Z,6.30
2019-02-05T14:09:26.352Z,6.36
2019-02-05T14:11:56.832Z,6.30
2019-02-05T14:18:54.658Z,6.01
2019-02-05T14:21:15.252Z,5.70
2019-02-05T14:23:45.590Z,5.76
2019-02-05T14:30:19.110Z,5.83
2019-02-05T14:33:40.599Z,5.75
2019-02-05T14:36:58.544Z,5.71
2019-02-05T14:39:28.976Z,5.83
2019-02-05T14:41:59.266Z,5.61
2019-02-05T14:44:29.675Z,5.74
2019-02-05T14:47:00.031Z,5.75
2019-02-05T14:49:30.126Z,5.74
2019-02-05T14:52:00.465Z,5.96
2019-02-05T14:56:02.637Z,6.01
2019-02-05T15:08:52.087Z,5.43
2019-02-05T15:11:44.321Z,5.30
2019-02-05T15:14:43.094Z,5.43
2019-02-05T15:17:38.578Z,5.27
2019-02-05T15:20:50.521Z,5.24
2019-02-05T15:29:57.485Z,5.08
2019-02-05T15:33:31.599Z,5.07
2019-02-05T15:39:45.336Z,4.92
2019-02-05T15:42:51.042Z,4.91
2019-02-05T15:46:04.172Z,4.86
2019-02-05T15:48:49.206Z,4.87
2019-02-05T15:51:37.965Z,4.84
2019-02-05T15:54:47.715Z,4.84
2019-02-05T15:57:33.919Z,4.87
2019-02-05T16:00:40.272Z,4.82
2019-02-05T16:07:21.137Z,4.67
2019-02-05T16:09:48.910Z,4.61
2019-02-05T16:12:19.242Z,4.53
2019-02-05T16:14:49.587Z,4.61
2019-02-05T16:17:19.883Z,4.52
2019-02-05T16:21:16.422Z,4.36
2019-02-05T16:24:04.449Z,4.39
2019-02-05T16:26:42.332Z,4.47
2019-02-05T16:29:26.435Z,4.46
2019-02-05T16:32:22.044Z,4.45
2019-02-05T16:35:22.407Z,4.43
2019-02-05T16:38:07.553Z,4.34
2019-02-05T16:41:19.089Z,4.34
2019-02-05T16:44:06.166Z,4.27
2019-02-05T16:47:06.014Z,4.27
2019-02-05T16:49:46.411Z,4.27
2019-02-05T16:55:12.868Z,4.22
2019-02-05T16:57:47.968Z,4.33
2019-02-05T17:00:23.586Z,4.19
2019-02-05T17:02:53.948Z,4.19
2019-02-05T17:05:49.681Z,4.25
2019-02-05T17:11:59.511Z,4.13
2019-02-05T17:14:34.818Z,4.18
2019-02-05T17:17:22.560Z,4.15
2019-02-05T17:20:06.219Z,4.13
2019-02-05T17:22:53.674Z,4.08
2019-02-05T17:28:29.612Z,4.08
2019-02-05T17:31:37.921Z,4.07
2019-02-05T17:34:34.623Z,4.06
2019-02-05T17:37:15.950Z,3.93
2019-02-05T17:39:59.374Z,3.83
2019-02-05T17:42:43.326Z,3.81
2019-02-05T17:45:48.355Z,3.69
2019-02-05T17:51:57.253Z,3.59
2019-02-05T17:54:27.082Z,3.53
2019-02-05T17:57:42.313Z,3.56
2019-02-05T18:00:37.543Z,3.53
2019-02-05T18:03:18.664Z,3.47
2019-02-05T18:06:03.675Z,3.46
2019-02-05T18:08:54.933Z,3.48
2019-02-05T18:11:42.947Z,3.45
2019-02-05T18:14:28.954Z,3.44
2019-02-05T18:17:24.778Z,3.42
2019-02-05T18:20:06.656Z,3.40
2019-02-05T18:23:15.515Z,3.38
2019-02-05T18:26:04.084Z,3.44
2019-02-05T18:29:03.018Z,3.40
2019-02-05T18:31:43.860Z,3.37
2019-02-05T18:34:21.198Z,3.37
2019-02-05T18:37:28.437Z,3.33
2019-02-05T18:39:39.966Z,3.28
2019-02-05T18:43:07.843Z,3.23
2019-02-05T18:46:15.197Z,3.19
2019-02-05T18:49:04.279Z,3.11
2019-02-05T18:51:27.919Z,3.05
2019-02-05T18:54:01.278Z,2.97
2019-02-05T18:56:39.031Z,2.89
2019-02-05T18:59:09.494Z,2.83
2019-02-05T19:01:40.106Z,2.76
2019-02-05T19:04:10.543Z,2.71
2019-02-05T19:06:41.102Z,2.65
2019-02-05T19:09:47.869Z,2.55
2019-02-05T19:12:30.431Z,2.45
2019-02-05T19:15:11.610Z,2.35
2019-02-05T19:18:01.654Z,2.29
2019-02-05T19:20:47.201Z,2.22
2019-02-05T19:24:00.229Z,2.18
2019-02-05T19:26:29.734Z,2.14
2019-02-05T19:29:18.987Z,2.09
2019-02-05T19:31:59.079Z,2.08
2019-02-05T19:34:45.433Z,2.03
2019-02-05T19:37:33.601Z,1.96
2019-02-05T19:40:21.917Z,1.91
2019-02-05T19:43:40.451Z,1.89
2019-02-05T19:46:31.096Z,1.82
2019-02-05T19:49:06.632Z,1.79
2019-02-05T19:51:37.378Z,1.79
2019-02-05T19:54:08.094Z,1.81
2019-02-05T19:56:41.549Z,1.79
2019-02-05T19:59:12.628Z,1.75
2019-02-05T20:01:43.333Z,1.71
2019-02-05T20:05:07.818Z,1.69
2019-02-05T20:08:46.459Z,1.73
2019-02-05T20:10:52.774Z,1.73
2019-02-05T20:13:40.455Z,1.75
2019-02-05T20:16:23.067Z,1.76
2019-02-05T20:19:06.488Z,1.75
2019-02-05T20:21:55.924Z,1.78
2019-02-05T20:27:58.772Z,1.76
2019-02-05T20:30:29.349Z,1.80
2019-02-05T20:32:59.947Z,1.88
2019-02-05T20:35:30.367Z,1.95
2019-02-05T20:38:00.929Z,2.03
2019-02-05T20:40:31.455Z,2.12
2019-02-05T20:43:02.683Z,2.18
2019-02-05T20:45:32.933Z,2.26
2019-02-05T20:48:03.279Z,2.34
2019-02-05T20:50:33.663Z,2.43
2019-02-05T20:53:13.463Z,2.54
2019-02-05T20:55:40.098Z,2.58
2019-02-05T20:58:19.316Z,2.59
2019-02-05T21:00:49.778Z,2.62
2019-02-05T21:03:20.620Z,2.65
2019-02-05T21:05:50.940Z,2.72
2019-02-05T21:08:21.364Z,2.71
2019-02-05T21:10:52.383Z,2.76
2019-02-05T21:13:22.880Z,2.80
2019-02-05T21:16:04.581Z,2.86
2019-02-05T21:18:46.611Z,2.91
2019-02-05T21:21:48.604Z,2.94
2019-02-05T21:25:34.584Z,2.97
2019-02-05T21:31:33.694Z,3.02
2019-02-05T21:34:25.128Z,3.04
2019-02-05T21:37:25.010Z,3.03
2019-02-05T21:40:05.655Z,3.10
2019-02-05T21:42:49.439Z,3.01
2019-02-05T21:49:04.007Z,3.04
2019-02-05T21:52:04.032Z,2.96
2019-02-05T21:55:07.890Z,3.01
2019-02-05T21:58:02.164Z,3.08
2019-02-05T22:01:08.084Z,3.08
2019-02-05T22:03:38.573Z,3.15
2019-02-05T22:07:05.045Z,3.18
2019-02-05T22:10:38.474Z,3.19
2019-02-05T22:14:00.609Z,3.27
2019-02-05T22:20:17.404Z,3.43
2019-02-05T22:22:47.842Z,3.39
2019-02-05T22:25:22.397Z,3.50
2019-02-05T22:28:06.367Z,3.53
2019-02-05T22:30:57.228Z,3.57
2019-02-05T22:33:35.671Z,3.60
2019-02-05T22:36:12.924Z,3.63
2019-02-05T22:39:50.442Z,3.64
2019-02-05T22:43:14.941Z,3.71
2019-02-05T22:50:20.061Z,3.78
2019-02-05T22:53:25.349Z,3.71
2019-02-05T22:56:04.666Z,3.69
2019-02-05T23:03:34.280Z,3.64
2019-02-05T23:18:24.746Z,3.71
2019-02-05T23:21:32.844Z,3.69
2019-02-05T23:24:42.604Z,3.58
2019-02-05T23:27:36.952Z,3.50
2019-02-05T23:30:45.723Z,3.57
2019-02-05T23:37:26.774Z,3.45
2019-02-05T23:39:56.733Z,3.34
2019-02-05T23:42:27.490Z,3.33
2019-02-05T23:44:58.287Z,3.29
2019-02-05T23:47:28.596Z,3.33
2019-02-05T23:49:59.012Z,3.35
2019-02-05T23:52:29.424Z,3.45
2019-02-05T23:55:00.377Z,3.42
2019-02-05T23:57:30.695Z,3.34
